Shawano, WI (54166)

9:06 AM CST on December 05, 2016 (GMT -0600)
Willow Wood | | Change Station

Elev 810 ft 44.79 °N, 88.58 °W | Updated 51 seconds ago

Overcast
Overcast
32.9 °F
Feels Like 33 °F
N
0.6
Wind Variable Wind from North
Gusts 1.9 mph

Today
High -- | Low -- °F
--% Chance of Precip.
Yesterday
High -- | Low -- °F
Precip. -- in
Pressure 29.89 in
Visibility 10.0 miles
Clouds Overcast 1400 ft
Windchill 33 °F
Dew Point 30 °F
Humidity 89%
Rainfall 0.00 in
Snow Depth Not available.
7:16 AM 4:13 PM
Waxing Crescent, 32% visible
METAR KEZS 051455Z AUTO 00000KT 10SM OVC014 02/00 A2989 RMK AO2 T00170000
Pressure 29.89 in
Visibility 10.0 miles
Clouds Overcast 1400 ft
Windchill 33 °F
Dew Point 30 °F
Humidity 89%
Rainfall 0.00 in
Snow Depth Not available.
7:16 AM 4:13 PM
Waxing Crescent, 32% visible
METAR KEZS 051455Z AUTO 00000KT 10SM OVC014 02/00 A2989 RMK AO2 T00170000

10-Day Weather Forecast

Almanac

Astronomy

Dec. 05, 2016 Rise Set
Actual Time
Civil Twilight
Nautical Twilight
Astronomical Twilight
Moon
Length of Visible Light
Length of Day
Tomorrow will be .
, % of the Moon is Illuminated

Today's Extremes

State Highs State Lows

Community

WunderPhotos

Upload Photos

1,955,787 photos uploaded!

WunderBlog® & News

Nearby

Air Quality

  Air Quality AQ Index Pollutant
Not available.

Snow Depth

Station Depth Elevation

Earthquake Activity

City Distance Mag. Time & Date
Minimum magnitude displayed is 2.5.

Coastal Water Temperatures

Place Temperature

Stations

Nearby Weather Stations

Station Location Temp. Windchill Dew Point Humidity Wind Precip. Elev Updated Type
                   

Watches & Warnings

There are currently no watches in effect.